sensor_id;sensor_type;location;lat;lon;timestamp;P1;durP1;ratioP1;P2;durP2;ratioP2
7879;SDS011;3985;49.366;2.738;2022-10-13T00:01:29;38.75;;;36.00;;
7879;SDS011;3985;49.366;2.738;2022-10-13T00:04:01;32.00;;;32.00;;
7879;SDS011;3985;49.366;2.738;2022-10-13T00:06:28;41.00;;;36.00;;
7879;SDS011;3985;49.366;2.738;2022-10-13T00:08:57;36.50;;;33.25;;
7879;SDS011;3985;49.366;2.738;2022-10-13T00:11:25;45.25;;;37.50;;
7879;SDS011;3985;49.366;2.738;2022-10-13T00:13:54;43.50;;;36.00;;
7879;SDS011;3985;49.366;2.738;2022-10-13T00:16:23;40.75;;;35.75;;
7879;SDS011;3985;49.366;2.738;2022-10-13T00:18:51;43.00;;;38.25;;
7879;SDS011;3985;49.366;2.738;2022-10-13T00:21:21;34.50;;;34.00;;
7879;SDS011;3985;49.366;2.738;2022-10-13T00:23:50;34.25;;;29.50;;
7879;SDS011;3985;49.366;2.738;2022-10-13T00:26:22;39.75;;;36.00;;
7879;SDS011;3985;49.366;2.738;2022-10-13T00:28:50;40.25;;;35.25;;
7879;SDS011;3985;49.366;2.738;2022-10-13T00:31:20;38.25;;;36.00;;
7879;SDS011;3985;49.366;2.738;2022-10-13T00:33:48;38.00;;;36.00;;
7879;SDS011;3985;49.366;2.738;2022-10-13T00:36:17;35.50;;;31.50;;
7879;SDS011;3985;49.366;2.738;2022-10-13T00:38:46;32.75;;;32.75;;
7879;SDS011;3985;49.366;2.738;2022-10-13T00:41:13;36.25;;;33.25;;
7879;SDS011;3985;49.366;2.738;2022-10-13T00:43:52;39.50;;;34.50;;
7879;SDS011;3985;49.366;2.738;2022-10-13T00:46:22;37.25;;;33.75;;
7879;SDS011;3985;49.366;2.738;2022-10-13T00:48:54;33.50;;;30.25;;
7879;SDS011;3985;49.366;2.738;2022-10-13T00:51:25;30.00;;;28.50;;
7879;SDS011;3985;49.366;2.738;2022-10-13T00:53:54;28.25;;;27.50;;
7879;SDS011;3985;49.366;2.738;2022-10-13T00:56:22;41.50;;;36.50;;
7879;SDS011;3985;49.366;2.738;2022-10-13T00:58:52;24.75;;;21.75;;
7879;SDS011;3985;49.366;2.738;2022-10-13T01:01:21;32.25;;;30.75;;
7879;SDS011;3985;49.366;2.738;2022-10-13T01:03:48;19.75;;;17.25;;
7879;SDS011;3985;49.366;2.738;2022-10-13T01:06:17;41.75;;;34.25;;
7879;SDS011;3985;49.366;2.738;2022-10-13T01:08:46;29.50;;;29.00;;
7879;SDS011;3985;49.366;2.738;2022-10-13T01:11:19;30.00;;;27.00;;
7879;SDS011;3985;49.366;2.738;2022-10-13T01:13:57;34.75;;;31.25;;
7879;SDS011;3985;49.366;2.738;2022-10-13T01:16:33;36.25;;;33.75;;
7879;SDS011;3985;49.366;2.738;2022-10-13T01:19:12;31.25;;;29.75;;
7879;SDS011;3985;49.366;2.738;2022-10-13T01:21:52;26.75;;;25.00;;
7879;SDS011;3985;49.366;2.738;2022-10-13T01:24:32;32.25;;;27.75;;
7879;SDS011;3985;49.366;2.738;2022-10-13T01:30:20;27.00;;;22.50;;
7879;SDS011;3985;49.366;2.738;2022-10-13T01:32:53;31.00;;;28.25;;
7879;SDS011;3985;49.366;2.738;2022-10-13T01:35:29;34.75;;;32.50;;
7879;SDS011;3985;49.366;2.738;2022-10-13T01:38:12;31.75;;;28.00;;
7879;SDS011;3985;49.366;2.738;2022-10-13T01:40:46;33.25;;;32.00;;
7879;SDS011;3985;49.366;2.738;2022-10-13T01:43:18;30.50;;;29.25;;
7879;SDS011;3985;49.366;2.738;2022-10-13T01:45:50;33.00;;;28.75;;
7879;SDS011;3985;49.366;2.738;2022-10-13T01:48:21;28.25;;;28.25;;
7879;SDS011;3985;49.366;2.738;2022-10-13T01:50:49;30.25;;;26.75;;
7879;SDS011;3985;49.366;2.738;2022-10-13T01:53:17;26.50;;;25.75;;
7879;SDS011;3985;49.366;2.738;2022-10-13T01:55:47;35.50;;;31.50;;
7879;SDS011;3985;49.366;2.738;2022-10-13T01:58:16;28.75;;;27.50;;
7879;SDS011;3985;49.366;2.738;2022-10-13T02:00:47;29.25;;;29.25;;
7879;SDS011;3985;49.366;2.738;2022-10-13T02:03:28;28.00;;;25.50;;
7879;SDS011;3985;49.366;2.738;2022-10-13T02:06:04;27.25;;;22.25;;
7879;SDS011;3985;49.366;2.738;2022-10-13T02:08:38;28.00;;;27.50;;
7879;SDS011;3985;49.366;2.738;2022-10-13T02:11:11;28.00;;;26.75;;
7879;SDS011;3985;49.366;2.738;2022-10-13T02:13:40;33.75;;;29.00;;
7879;SDS011;3985;49.366;2.738;2022-10-13T02:16:11;31.75;;;28.00;;
7879;SDS011;3985;49.366;2.738;2022-10-13T02:18:41;28.50;;;26.50;;
7879;SDS011;3985;49.366;2.738;2022-10-13T02:21:09;21.00;;;21.00;;
7879;SDS011;3985;49.366;2.738;2022-10-13T02:23:37;29.00;;;27.25;;
7879;SDS011;3985;49.366;2.738;2022-10-13T02:26:05;29.50;;;27.50;;
7879;SDS011;3985;49.366;2.738;2022-10-13T02:28:32;16.25;;;16.25;;
7879;SDS011;3985;49.366;2.738;2022-10-13T02:31:01;31.25;;;23.50;;
7879;SDS011;3985;49.366;2.738;2022-10-13T02:33:32;23.25;;;23.25;;
7879;SDS011;3985;49.366;2.738;2022-10-13T02:36:00;27.25;;;25.75;;
7879;SDS011;3985;49.366;2.738;2022-10-13T02:38:27;23.25;;;20.25;;
7879;SDS011;3985;49.366;2.738;2022-10-13T02:40:54;27.25;;;26.25;;
7879;SDS011;3985;49.366;2.738;2022-10-13T02:43:22;26.50;;;23.50;;
7879;SDS011;3985;49.366;2.738;2022-10-13T02:45:49;25.25;;;25.25;;
7879;SDS011;3985;49.366;2.738;2022-10-13T02:48:17;21.50;;;19.75;;
7879;SDS011;3985;49.366;2.738;2022-10-13T02:50:46;23.50;;;22.00;;
7879;SDS011;3985;49.366;2.738;2022-10-13T02:53:13;24.50;;;22.00;;
7879;SDS011;3985;49.366;2.738;2022-10-13T02:55:41;20.25;;;20.00;;
7879;SDS011;3985;49.366;2.738;2022-10-13T02:58:09;21.00;;;19.50;;
7879;SDS011;3985;49.366;2.738;2022-10-13T03:00:36;28.00;;;26.50;;
7879;SDS011;3985;49.366;2.738;2022-10-13T03:03:04;25.25;;;21.50;;
7879;SDS011;3985;49.366;2.738;2022-10-13T03:05:32;23.00;;;19.75;;
7879;SDS011;3985;49.366;2.738;2022-10-13T03:08:01;23.25;;;20.75;;
7879;SDS011;3985;49.366;2.738;2022-10-13T03:10:29;25.50;;;25.50;;
7879;SDS011;3985;49.366;2.738;2022-10-13T03:12:57;22.00;;;22.00;;
7879;SDS011;3985;49.366;2.738;2022-10-13T03:15:25;22.75;;;22.75;;
7879;SDS011;3985;49.366;2.738;2022-10-13T03:17:52;22.75;;;22.75;;
7879;SDS011;3985;49.366;2.738;2022-10-13T03:20:19;19.25;;;19.25;;
7879;SDS011;3985;49.366;2.738;2022-10-13T03:22:47;29.50;;;26.00;;
7879;SDS011;3985;49.366;2.738;2022-10-13T03:25:16;25.50;;;23.00;;
7879;SDS011;3985;49.366;2.738;2022-10-13T03:27:44;23.25;;;23.25;;
7879;SDS011;3985;49.366;2.738;2022-10-13T03:30:11;26.50;;;26.50;;
7879;SDS011;3985;49.366;2.738;2022-10-13T03:32:39;24.50;;;24.50;;
7879;SDS011;3985;49.366;2.738;2022-10-13T03:35:07;19.75;;;19.75;;
7879;SDS011;3985;49.366;2.738;2022-10-13T03:37:34;21.50;;;19.50;;
7879;SDS011;3985;49.366;2.738;2022-10-13T03:40:02;27.00;;;24.50;;
7879;SDS011;3985;49.366;2.738;2022-10-13T03:42:32;25.25;;;25.25;;
7879;SDS011;3985;49.366;2.738;2022-10-13T03:45:01;26.50;;;26.50;;
7879;SDS011;3985;49.366;2.738;2022-10-13T03:47:29;27.25;;;25.25;;
7879;SDS011;3985;49.366;2.738;2022-10-13T03:50:02;27.75;;;25.75;;
7879;SDS011;3985;49.366;2.738;2022-10-13T03:52:30;28.50;;;28.50;;
7879;SDS011;3985;49.366;2.738;2022-10-13T03:54:58;28.00;;;25.50;;
7879;SDS011;3985;49.366;2.738;2022-10-13T03:57:25;33.50;;;31.25;;
7879;SDS011;3985;49.366;2.738;2022-10-13T03:59:54;27.50;;;23.50;;
7879;SDS011;3985;49.366;2.738;2022-10-13T04:02:25;27.50;;;27.50;;
7879;SDS011;3985;49.366;2.738;2022-10-13T04:04:52;21.50;;;20.25;;
7879;SDS011;3985;49.366;2.738;2022-10-13T04:07:20;24.25;;;24.25;;
7879;SDS011;3985;49.366;2.738;2022-10-13T04:09:51;25.50;;;22.75;;
7879;SDS011;3985;49.366;2.738;2022-10-13T04:12:24;19.50;;;19.50;;
7879;SDS011;3985;49.366;2.738;2022-10-13T04:14:52;20.50;;;20.50;;
7879;SDS011;3985;49.366;2.738;2022-10-13T04:17:21;23.50;;;19.75;;
7879;SDS011;3985;49.366;2.738;2022-10-13T04:19:48;19.25;;;19.00;;
7879;SDS011;3985;49.366;2.738;2022-10-13T04:22:16;18.75;;;17.00;;
7879;SDS011;3985;49.366;2.738;2022-10-13T04:24:43;20.25;;;18.25;;
7879;SDS011;3985;49.366;2.738;2022-10-13T04:27:11;21.25;;;20.75;;
7879;SDS011;3985;49.366;2.738;2022-10-13T04:29:40;18.00;;;18.00;;
7879;SDS011;3985;49.366;2.738;2022-10-13T04:32:09;23.00;;;19.50;;
7879;SDS011;3985;49.366;2.738;2022-10-13T04:34:37;22.75;;;20.25;;
7879;SDS011;3985;49.366;2.738;2022-10-13T04:37:04;21.50;;;19.25;;
7879;SDS011;3985;49.366;2.738;2022-10-13T04:39:31;26.00;;;20.50;;
7879;SDS011;3985;49.366;2.738;2022-10-13T04:41:59;18.75;;;17.25;;
7879;SDS011;3985;49.366;2.738;2022-10-13T04:44:26;22.00;;;20.50;;
7879;SDS011;3985;49.366;2.738;2022-10-13T04:46:55;26.25;;;21.25;;
7879;SDS011;3985;49.366;2.738;2022-10-13T04:49:24;18.50;;;18.50;;
7879;SDS011;3985;49.366;2.738;2022-10-13T04:51:54;25.00;;;22.00;;
7879;SDS011;3985;49.366;2.738;2022-10-13T04:54:24;22.75;;;22.75;;
7879;SDS011;3985;49.366;2.738;2022-10-13T04:56:52;23.00;;;20.75;;
7879;SDS011;3985;49.366;2.738;2022-10-13T04:59:21;18.00;;;14.00;;
7879;SDS011;3985;49.366;2.738;2022-10-13T05:01:48;23.00;;;19.50;;
7879;SDS011;3985;49.366;2.738;2022-10-13T05:04:16;23.25;;;19.25;;
7879;SDS011;3985;49.366;2.738;2022-10-13T05:06:45;19.75;;;19.75;;
7879;SDS011;3985;49.366;2.738;2022-10-13T05:09:13;22.00;;;22.00;;
7879;SDS011;3985;49.366;2.738;2022-10-13T05:11:46;23.75;;;23.50;;
7879;SDS011;3985;49.366;2.738;2022-10-13T05:14:13;21.75;;;21.75;;
7879;SDS011;3985;49.366;2.738;2022-10-13T05:16:41;25.50;;;21.75;;
7879;SDS011;3985;49.366;2.738;2022-10-13T05:19:08;20.00;;;20.00;;
7879;SDS011;3985;49.366;2.738;2022-10-13T05:21:35;19.50;;;18.00;;
7879;SDS011;3985;49.366;2.738;2022-10-13T05:24:06;22.50;;;20.75;;
7879;SDS011;3985;49.366;2.738;2022-10-13T05:26:37;18.00;;;17.75;;
7879;SDS011;3985;49.366;2.738;2022-10-13T05:29:06;18.50;;;17.00;;
7879;SDS011;3985;49.366;2.738;2022-10-13T05:31:33;27.00;;;26.25;;
7879;SDS011;3985;49.366;2.738;2022-10-13T05:34:01;31.75;;;27.75;;
7879;SDS011;3985;49.366;2.738;2022-10-13T05:36:29;33.75;;;32.75;;
7879;SDS011;3985;49.366;2.738;2022-10-13T05:38:58;31.00;;;29.50;;
7879;SDS011;3985;49.366;2.738;2022-10-13T05:41:28;29.75;;;28.25;;
7879;SDS011;3985;49.366;2.738;2022-10-13T05:43:59;26.75;;;25.50;;
7879;SDS011;3985;49.366;2.738;2022-10-13T05:46:28;24.00;;;24.00;;
7879;SDS011;3985;49.366;2.738;2022-10-13T05:48:57;20.50;;;20.00;;
7879;SDS011;3985;49.366;2.738;2022-10-13T05:51:26;21.50;;;21.00;;
7879;SDS011;3985;49.366;2.738;2022-10-13T05:53:57;21.50;;;20.50;;
7879;SDS011;3985;49.366;2.738;2022-10-13T05:56:30;19.75;;;16.75;;
7879;SDS011;3985;49.366;2.738;2022-10-13T05:59:02;18.50;;;17.75;;
7879;SDS011;3985;49.366;2.738;2022-10-13T06:01:31;21.75;;;19.25;;
7879;SDS011;3985;49.366;2.738;2022-10-13T06:04:02;26.75;;;24.75;;
7879;SDS011;3985;49.366;2.738;2022-10-13T06:06:31;24.50;;;20.75;;
7879;SDS011;3985;49.366;2.738;2022-10-13T06:08:59;24.25;;;21.25;;
7879;SDS011;3985;49.366;2.738;2022-10-13T06:11:26;21.25;;;21.25;;
7879;SDS011;3985;49.366;2.738;2022-10-13T06:13:56;18.25;;;16.75;;
7879;SDS011;3985;49.366;2.738;2022-10-13T06:16:23;17.75;;;17.50;;
7879;SDS011;3985;49.366;2.738;2022-10-13T06:18:51;19.50;;;19.50;;
7879;SDS011;3985;49.366;2.738;2022-10-13T06:21:19;21.25;;;17.50;;
7879;SDS011;3985;49.366;2.738;2022-10-13T06:23:47;20.50;;;19.75;;
7879;SDS011;3985;49.366;2.738;2022-10-13T06:26:14;21.50;;;20.25;;
7879;SDS011;3985;49.366;2.738;2022-10-13T06:28:43;20.50;;;18.25;;
7879;SDS011;3985;49.366;2.738;2022-10-13T06:31:11;17.25;;;16.75;;
7879;SDS011;3985;49.366;2.738;2022-10-13T06:33:39;19.25;;;17.75;;
7879;SDS011;3985;49.366;2.738;2022-10-13T06:36:06;17.25;;;17.25;;
7879;SDS011;3985;49.366;2.738;2022-10-13T06:38:34;20.00;;;15.75;;
7879;SDS011;3985;49.366;2.738;2022-10-13T06:41:03;20.50;;;19.00;;
7879;SDS011;3985;49.366;2.738;2022-10-13T06:43:31;18.25;;;18.25;;
7879;SDS011;3985;49.366;2.738;2022-10-13T06:45:59;26.00;;;20.25;;
7879;SDS011;3985;49.366;2.738;2022-10-13T06:48:28;18.75;;;18.75;;
7879;SDS011;3985;49.366;2.738;2022-10-13T06:50:59;18.00;;;17.50;;
7879;SDS011;3985;49.366;2.738;2022-10-13T06:53:27;18.00;;;15.00;;
7879;SDS011;3985;49.366;2.738;2022-10-13T06:55:55;22.50;;;19.00;;
7879;SDS011;3985;49.366;2.738;2022-10-13T06:58:22;20.75;;;19.00;;
7879;SDS011;3985;49.366;2.738;2022-10-13T07:00:50;18.50;;;18.50;;
7879;SDS011;3985;49.366;2.738;2022-10-13T07:03:19;17.25;;;16.00;;
7879;SDS011;3985;49.366;2.738;2022-10-13T07:05:49;20.75;;;18.50;;
7879;SDS011;3985;49.366;2.738;2022-10-13T07:08:17;20.25;;;20.25;;
7879;SDS011;3985;49.366;2.738;2022-10-13T07:10:45;15.00;;;15.00;;
7879;SDS011;3985;49.366;2.738;2022-10-13T07:13:13;18.75;;;16.75;;
7879;SDS011;3985;49.366;2.738;2022-10-13T07:15:40;17.00;;;17.00;;
7879;SDS011;3985;49.366;2.738;2022-10-13T07:18:08;18.00;;;17.00;;
7879;SDS011;3985;49.366;2.738;2022-10-13T07:20:35;17.25;;;15.50;;
7879;SDS011;3985;49.366;2.738;2022-10-13T07:23:05;18.33;;;17.00;;
7879;SDS011;3985;49.366;2.738;2022-10-13T07:25:32;21.67;;;19.33;;
7879;SDS011;3985;49.366;2.738;2022-10-13T07:27:59;19.75;;;18.50;;
7879;SDS011;3985;49.366;2.738;2022-10-13T07:30:27;14.33;;;14.33;;
7879;SDS011;3985;49.366;2.738;2022-10-13T07:32:54;21.33;;;18.67;;
7879;SDS011;3985;49.366;2.738;2022-10-13T07:35:21;15.00;;;14.00;;
7879;SDS011;3985;49.366;2.738;2022-10-13T07:37:51;15.33;;;15.33;;
7879;SDS011;3985;49.366;2.738;2022-10-13T07:40:21;20.00;;;18.33;;
7879;SDS011;3985;49.366;2.738;2022-10-13T07:42:48;15.00;;;12.67;;
7879;SDS011;3985;49.366;2.738;2022-10-13T07:45:16;17.33;;;15.00;;
7879;SDS011;3985;49.366;2.738;2022-10-13T07:47:43;14.33;;;14.33;;
7879;SDS011;3985;49.366;2.738;2022-10-13T07:50:11;14.00;;;13.67;;
7879;SDS011;3985;49.366;2.738;2022-10-13T07:52:38;19.00;;;18.33;;
7879;SDS011;3985;49.366;2.738;2022-10-13T07:55:06;18.67;;;18.67;;
7879;SDS011;3985;49.366;2.738;2022-10-13T07:57:35;15.67;;;15.33;;
7879;SDS011;3985;49.366;2.738;2022-10-13T08:00:04;19.33;;;19.33;;
7879;SDS011;3985;49.366;2.738;2022-10-13T08:02:32;21.33;;;18.00;;
7879;SDS011;3985;49.366;2.738;2022-10-13T08:05:01;15.67;;;14.67;;
7879;SDS011;3985;49.366;2.738;2022-10-13T08:07:31;17.33;;;17.33;;
7879;SDS011;3985;49.366;2.738;2022-10-13T08:10:00;21.67;;;18.33;;
7879;SDS011;3985;49.366;2.738;2022-10-13T08:12:28;15.00;;;15.00;;
7879;SDS011;3985;49.366;2.738;2022-10-13T08:14:57;18.00;;;14.00;;
7879;SDS011;3985;49.366;2.738;2022-10-13T08:17:24;14.67;;;14.33;;
7879;SDS011;3985;49.366;2.738;2022-10-13T08:19:52;15.67;;;14.67;;
7879;SDS011;3985;49.366;2.738;2022-10-13T08:22:20;16.33;;;14.00;;
7879;SDS011;3985;49.366;2.738;2022-10-13T08:24:47;17.00;;;14.67;;
7879;SDS011;3985;49.366;2.738;2022-10-13T08:27:17;13.00;;;12.67;;
7879;SDS011;3985;49.366;2.738;2022-10-13T08:29:46;14.67;;;13.00;;
7879;SDS011;3985;49.366;2.738;2022-10-13T08:32:15;17.00;;;12.33;;
7879;SDS011;3985;49.366;2.738;2022-10-13T08:34:45;10.33;;;10.33;;
7879;SDS011;3985;49.366;2.738;2022-10-13T08:37:12;12.00;;;12.00;;
7879;SDS011;3985;49.366;2.738;2022-10-13T08:39:43;15.33;;;15.33;;
7879;SDS011;3985;49.366;2.738;2022-10-13T08:42:11;12.00;;;10.00;;
7879;SDS011;3985;49.366;2.738;2022-10-13T08:44:43;14.33;;;12.67;;
7879;SDS011;3985;49.366;2.738;2022-10-13T08:47:17;11.67;;;10.00;;
7879;SDS011;3985;49.366;2.738;2022-10-13T08:49:52;11.00;;;11.00;;
7879;SDS011;3985;49.366;2.738;2022-10-13T08:52:22;12.33;;;12.00;;
7879;SDS011;3985;49.366;2.738;2022-10-13T08:54:52;11.75;;;11.00;;
7879;SDS011;3985;49.366;2.738;2022-10-13T08:57:21;11.00;;;9.00;;
7879;SDS011;3985;49.366;2.738;2022-10-13T08:59:49;14.00;;;12.00;;
7879;SDS011;3985;49.366;2.738;2022-10-13T09:02:23;13.33;;;12.33;;
7879;SDS011;3985;49.366;2.738;2022-10-13T09:04:54;9.75;;;7.50;;
7879;SDS011;3985;49.366;2.738;2022-10-13T09:07:25;12.00;;;10.33;;
7879;SDS011;3985;49.366;2.738;2022-10-13T09:09:55;11.75;;;11.75;;
7879;SDS011;3985;49.366;2.738;2022-10-13T09:12:22;11.00;;;11.00;;
7879;SDS011;3985;49.366;2.738;2022-10-13T09:14:57;7.67;;;7.67;;
7879;SDS011;3985;49.366;2.738;2022-10-13T09:17:29;8.75;;;8.75;;
7879;SDS011;3985;49.366;2.738;2022-10-13T09:19:58;11.25;;;11.25;;
7879;SDS011;3985;49.366;2.738;2022-10-13T09:22:27;9.75;;;9.75;;
7879;SDS011;3985;49.366;2.738;2022-10-13T09:25:09;10.50;;;10.00;;
7879;SDS011;3985;49.366;2.738;2022-10-13T09:27:44;12.75;;;9.75;;
7879;SDS011;3985;49.366;2.738;2022-10-13T09:30:23;10.00;;;7.00;;
7879;SDS011;3985;49.366;2.738;2022-10-13T09:33:15;8.75;;;8.75;;
7879;SDS011;3985;49.366;2.738;2022-10-13T09:36:04;9.75;;;8.75;;
7879;SDS011;3985;49.366;2.738;2022-10-13T09:38:35;12.00;;;11.00;;
7879;SDS011;3985;49.366;2.738;2022-10-13T09:41:04;11.50;;;9.50;;
7879;SDS011;3985;49.366;2.738;2022-10-13T09:43:39;11.75;;;10.75;;
7879;SDS011;3985;49.366;2.738;2022-10-13T09:46:11;10.50;;;7.50;;
7879;SDS011;3985;49.366;2.738;2022-10-13T09:48:46;10.25;;;7.25;;
7879;SDS011;3985;49.366;2.738;2022-10-13T09:51:29;9.50;;;9.50;;
7879;SDS011;3985;49.366;2.738;2022-10-13T09:53:59;6.50;;;5.50;;
7879;SDS011;3985;49.366;2.738;2022-10-13T09:56:28;11.00;;;8.50;;
7879;SDS011;3985;49.366;2.738;2022-10-13T09:59:05;8.25;;;8.25;;
7879;SDS011;3985;49.366;2.738;2022-10-13T10:01:39;8.25;;;7.00;;
7879;SDS011;3985;49.366;2.738;2022-10-13T10:04:12;5.00;;;5.00;;
7879;SDS011;3985;49.366;2.738;2022-10-13T10:06:41;9.75;;;7.75;;
7879;SDS011;3985;49.366;2.738;2022-10-13T10:09:15;7.25;;;6.00;;
7879;SDS011;3985;49.366;2.738;2022-10-13T10:12:00;9.75;;;7.50;;
7879;SDS011;3985;49.366;2.738;2022-10-13T10:14:31;6.00;;;6.00;;
7879;SDS011;3985;49.366;2.738;2022-10-13T10:17:02;12.50;;;8.00;;
7879;SDS011;3985;49.366;2.738;2022-10-13T10:19:46;5.00;;;5.00;;
7879;SDS011;3985;49.366;2.738;2022-10-13T10:22:21;9.75;;;7.25;;
7879;SDS011;3985;49.366;2.738;2022-10-13T10:24:58;6.25;;;6.25;;
7879;SDS011;3985;49.366;2.738;2022-10-13T10:27:34;7.00;;;7.00;;
7879;SDS011;3985;49.366;2.738;2022-10-13T10:30:07;6.50;;;6.50;;
7879;SDS011;3985;49.366;2.738;2022-10-13T10:32:48;6.00;;;6.00;;
7879;SDS011;3985;49.366;2.738;2022-10-13T10:35:26;6.00;;;6.00;;
7879;SDS011;3985;49.366;2.738;2022-10-13T10:38:07;6.00;;;6.00;;
7879;SDS011;3985;49.366;2.738;2022-10-13T10:40:48;5.75;;;5.75;;
7879;SDS011;3985;49.366;2.738;2022-10-13T10:43:27;6.25;;;5.00;;
7879;SDS011;3985;49.366;2.738;2022-10-13T10:46:20;5.75;;;5.75;;
7879;SDS011;3985;49.366;2.738;2022-10-13T10:48:51;7.00;;;5.00;;
7879;SDS011;3985;49.366;2.738;2022-10-13T10:51:30;4.00;;;4.00;;
7879;SDS011;3985;49.366;2.738;2022-10-13T10:54:06;6.25;;;6.25;;
7879;SDS011;3985;49.366;2.738;2022-10-13T10:56:50;5.75;;;4.25;;
7879;SDS011;3985;49.366;2.738;2022-10-13T10:59:30;4.75;;;4.00;;
7879;SDS011;3985;49.366;2.738;2022-10-13T11:02:12;5.00;;;5.00;;
7879;SDS011;3985;49.366;2.738;2022-10-13T11:04:45;6.00;;;6.00;;
7879;SDS011;3985;49.366;2.738;2022-10-13T11:10:23;5.00;;;5.00;;
7879;SDS011;3985;49.366;2.738;2022-10-13T11:15:47;6.00;;;4.25;;
7879;SDS011;3985;49.366;2.738;2022-10-13T11:24:45;3.00;;;3.00;;
7879;SDS011;3985;49.366;2.738;2022-10-13T11:27:17;5.00;;;5.00;;
7879;SDS011;3985;49.366;2.738;2022-10-13T11:29:52;3.50;;;3.50;;
7879;SDS011;3985;49.366;2.738;2022-10-13T11:32:41;3.00;;;3.00;;
7879;SDS011;3985;49.366;2.738;2022-10-13T11:35:20;3.25;;;3.25;;
7879;SDS011;3985;49.366;2.738;2022-10-13T11:37:52;2.25;;;2.25;;
7879;SDS011;3985;49.366;2.738;2022-10-13T11:40:31;3.25;;;3.25;;
7879;SDS011;3985;49.366;2.738;2022-10-13T11:43:02;2.75;;;2.75;;
7879;SDS011;3985;49.366;2.738;2022-10-13T11:49:03;3.00;;;3.00;;
7879;SDS011;3985;49.366;2.738;2022-10-13T11:51:47;3.00;;;3.00;;
7879;SDS011;3985;49.366;2.738;2022-10-13T11:54:26;3.00;;;3.00;;
7879;SDS011;3985;49.366;2.738;2022-10-13T11:56:59;2.00;;;2.00;;
7879;SDS011;3985;49.366;2.738;2022-10-13T11:59:29;6.25;;;3.00;;
7879;SDS011;3985;49.366;2.738;2022-10-13T12:01:57;2.25;;;2.25;;
7879;SDS011;3985;49.366;2.738;2022-10-13T12:04:31;3.00;;;3.00;;
7879;SDS011;3985;49.366;2.738;2022-10-13T12:06:59;6.00;;;4.00;;
7879;SDS011;3985;49.366;2.738;2022-10-13T12:09:28;3.00;;;3.00;;
7879;SDS011;3985;49.366;2.738;2022-10-13T12:11:58;7.25;;;7.25;;
7879;SDS011;3985;49.366;2.738;2022-10-13T12:14:31;3.00;;;3.00;;
7879;SDS011;3985;49.366;2.738;2022-10-13T12:17:15;3.75;;;3.75;;
7879;SDS011;3985;49.366;2.738;2022-10-13T12:19:46;3.00;;;3.00;;
7879;SDS011;3985;49.366;2.738;2022-10-13T12:22:14;2.00;;;2.00;;
7879;SDS011;3985;49.366;2.738;2022-10-13T12:24:41;6.67;;;4.00;;
7879;SDS011;3985;49.366;2.738;2022-10-13T12:27:14;4.00;;;4.00;;
7879;SDS011;3985;49.366;2.738;2022-10-13T12:29:45;4.25;;;4.25;;
7879;SDS011;3985;49.366;2.738;2022-10-13T12:32:17;4.75;;;4.00;;
7879;SDS011;3985;49.366;2.738;2022-10-13T12:34:45;3.25;;;3.25;;
7879;SDS011;3985;49.366;2.738;2022-10-13T12:37:14;4.75;;;4.75;;
7879;SDS011;3985;49.366;2.738;2022-10-13T12:39:49;4.00;;;3.75;;
7879;SDS011;3985;49.366;2.738;2022-10-13T12:42:19;4.00;;;4.00;;
7879;SDS011;3985;49.366;2.738;2022-10-13T12:44:51;6.75;;;4.25;;
7879;SDS011;3985;49.366;2.738;2022-10-13T12:47:35;3.75;;;3.75;;
7879;SDS011;3985;49.366;2.738;2022-10-13T12:53:02;6.25;;;4.50;;
7879;SDS011;3985;49.366;2.738;2022-10-13T12:55:35;4.00;;;4.00;;
7879;SDS011;3985;49.366;2.738;2022-10-13T12:58:19;5.25;;;5.25;;
7879;SDS011;3985;49.366;2.738;2022-10-13T13:01:01;5.25;;;5.25;;
7879;SDS011;3985;49.366;2.738;2022-10-13T13:03:33;5.25;;;3.75;;
7879;SDS011;3985;49.366;2.738;2022-10-13T13:06:07;4.00;;;4.00;;
7879;SDS011;3985;49.366;2.738;2022-10-13T13:08:36;5.75;;;4.25;;
7879;SDS011;3985;49.366;2.738;2022-10-13T13:11:04;5.75;;;4.25;;
7879;SDS011;3985;49.366;2.738;2022-10-13T13:13:43;5.50;;;3.50;;
7879;SDS011;3985;49.366;2.738;2022-10-13T13:16:14;4.00;;;4.00;;
7879;SDS011;3985;49.366;2.738;2022-10-13T13:18:44;7.75;;;4.75;;
7879;SDS011;3985;49.366;2.738;2022-10-13T13:21:13;5.50;;;4.75;;
7879;SDS011;3985;49.366;2.738;2022-10-13T13:23:41;5.00;;;5.00;;
7879;SDS011;3985;49.366;2.738;2022-10-13T13:26:11;1.00;;;1.00;;
7879;SDS011;3985;49.366;2.738;2022-10-13T13:28:42;6.50;;;3.75;;
7879;SDS011;3985;49.366;2.738;2022-10-13T13:31:13;4.25;;;4.25;;
7879;SDS011;3985;49.366;2.738;2022-10-13T13:33:41;5.50;;;5.25;;
7879;SDS011;3985;49.366;2.738;2022-10-13T13:36:13;9.25;;;7.00;;
7879;SDS011;3985;49.366;2.738;2022-10-13T13:38:42;8.75;;;6.00;;
7879;SDS011;3985;49.366;2.738;2022-10-13T13:41:10;6.00;;;6.00;;
7879;SDS011;3985;49.366;2.738;2022-10-13T13:43:39;10.50;;;8.50;;
7879;SDS011;3985;49.366;2.738;2022-10-13T13:46:11;15.25;;;13.00;;
7879;SDS011;3985;49.366;2.738;2022-10-13T13:48:41;10.50;;;8.00;;
7879;SDS011;3985;49.366;2.738;2022-10-13T13:51:10;9.00;;;8.00;;
7879;SDS011;3985;49.366;2.738;2022-10-13T13:53:38;4.75;;;4.75;;
7879;SDS011;3985;49.366;2.738;2022-10-13T13:56:08;4.00;;;4.00;;
7879;SDS011;3985;49.366;2.738;2022-10-13T13:58:38;10.25;;;6.25;;
7879;SDS011;3985;49.366;2.738;2022-10-13T14:01:06;9.00;;;7.25;;
7879;SDS011;3985;49.366;2.738;2022-10-13T14:03:35;5.50;;;5.50;;
7879;SDS011;3985;49.366;2.738;2022-10-13T14:06:03;6.25;;;6.25;;
7879;SDS011;3985;49.366;2.738;2022-10-13T14:08:31;6.50;;;6.50;;
7879;SDS011;3985;49.366;2.738;2022-10-13T14:10:59;10.00;;;8.00;;
7879;SDS011;3985;49.366;2.738;2022-10-13T14:13:27;7.00;;;7.00;;
7879;SDS011;3985;49.366;2.738;2022-10-13T14:15:57;9.00;;;9.00;;
7879;SDS011;3985;49.366;2.738;2022-10-13T14:18:25;8.00;;;8.00;;
7879;SDS011;3985;49.366;2.738;2022-10-13T14:20:54;7.00;;;7.00;;
7879;SDS011;3985;49.366;2.738;2022-10-13T14:23:22;8.75;;;8.75;;
7879;SDS011;3985;49.366;2.738;2022-10-13T14:25:49;8.00;;;8.00;;
7879;SDS011;3985;49.366;2.738;2022-10-13T14:28:19;8.00;;;8.00;;
7879;SDS011;3985;49.366;2.738;2022-10-13T14:30:46;6.00;;;6.00;;
7879;SDS011;3985;49.366;2.738;2022-10-13T14:33:14;6.75;;;6.75;;
7879;SDS011;3985;49.366;2.738;2022-10-13T14:35:43;11.75;;;8.25;;
7879;SDS011;3985;49.366;2.738;2022-10-13T14:38:13;7.50;;;7.50;;
7879;SDS011;3985;49.366;2.738;2022-10-13T14:40:40;7.25;;;6.75;;
7879;SDS011;3985;49.366;2.738;2022-10-13T14:43:09;7.50;;;6.00;;
7879;SDS011;3985;49.366;2.738;2022-10-13T14:45:37;7.25;;;5.75;;
7879;SDS011;3985;49.366;2.738;2022-10-13T14:48:05;4.00;;;4.00;;
7879;SDS011;3985;49.366;2.738;2022-10-13T14:50:32;4.00;;;4.00;;
7879;SDS011;3985;49.366;2.738;2022-10-13T14:53:00;4.00;;;4.00;;
7879;SDS011;3985;49.366;2.738;2022-10-13T14:55:30;5.50;;;5.00;;
7879;SDS011;3985;49.366;2.738;2022-10-13T14:57:58;4.50;;;4.00;;
7879;SDS011;3985;49.366;2.738;2022-10-13T15:00:25;4.00;;;4.00;;
7879;SDS011;3985;49.366;2.738;2022-10-13T15:02:52;3.00;;;3.00;;
7879;SDS011;3985;49.366;2.738;2022-10-13T15:05:20;4.00;;;4.00;;
7879;SDS011;3985;49.366;2.738;2022-10-13T15:07:49;3.75;;;3.75;;
7879;SDS011;3985;49.366;2.738;2022-10-13T15:10:20;4.00;;;4.00;;
7879;SDS011;3985;49.366;2.738;2022-10-13T15:12:49;4.25;;;4.25;;
7879;SDS011;3985;49.366;2.738;2022-10-13T15:15:17;6.00;;;4.00;;
7879;SDS011;3985;49.366;2.738;2022-10-13T15:17:46;5.00;;;5.00;;
7879;SDS011;3985;49.366;2.738;2022-10-13T15:20:14;3.00;;;3.00;;
7879;SDS011;3985;49.366;2.738;2022-10-13T15:22:41;4.25;;;4.25;;
7879;SDS011;3985;49.366;2.738;2022-10-13T15:25:09;3.00;;;3.00;;
7879;SDS011;3985;49.366;2.738;2022-10-13T15:27:36;5.00;;;3.00;;
7879;SDS011;3985;49.366;2.738;2022-10-13T15:30:07;3.75;;;3.75;;
7879;SDS011;3985;49.366;2.738;2022-10-13T15:32:35;4.25;;;4.25;;
7879;SDS011;3985;49.366;2.738;2022-10-13T15:35:03;5.00;;;5.00;;
7879;SDS011;3985;49.366;2.738;2022-10-13T15:37:31;5.00;;;3.00;;
7879;SDS011;3985;49.366;2.738;2022-10-13T15:39:59;4.00;;;4.00;;